< < Back
Terminal Aerodrome Forecast


Current Version              Previous Versions:   1  2  3  4  5  6  7  8  9  

Terminal Aerodrome Forecast

742
FTUS44 KOHX 011137
TAFBNA
TAF
KBNA 011137Z 0112/0212 27007KT P6SM -SHRA OVC050
     FM011400 27007KT P6SM SCT050 BKN110
     FM012100 35006KT P6SM SCT050
     FM020900 33004KT 5SM BR SCT015=

Latest METAR

209
SAUS70 KWBC 011300 RRX
MTRBNA
METAR KBNA 011253Z 27005KT 10SM -RA OVC100 22/17 A3005 RMK AO2 RAB50
SLP168 P0000 T02170167 $


USA.gov is the U.S. government's official web portal to all federal, state and local government web resources and services.